Terminal Aerodrome Forecast
Issued by NWS

Home | Current Version | Previous Version | Text Only | Print | Product List | Glossary On
Versions: 1 2 3 4 5 6 7 8 9 10 11 12 13 14 15 16
000
FTUS43 KGRR 061730
TAFJXN
TAF
KJXN 061730Z 0618/0718 20012G20KT P6SM SCT040 SCT250
     FM070300 19007KT P6SM OVC250
     FM071200 21011KT 6SM -SHRA BR VCTS BKN025CB OVC050
     FM071700 28010KT 4SM -SHRA OVC015=

USA.gov is the U.S. government's official web portal to all federal, state and local government web resources and services.